Ottawa, IL

3:11 PM CDT on June 02, 2015 (GMT -0500)
Aurora Municipal | | Change Station
CLOSE
Current Station
Airport
Location: Aurora,
Elevation: 712 ft
Nearby Weather Stations

Elev 712 ft 41.77 °N, 88.48 °W | Updated 19 minutes ago

Clear
Clear
73 °F
Feels Like 73 °F
N
12
Wind Variable Wind from ESE

Today
High -- | Low -- °F
--% Chance of Precip.
Yesterday
High -- | Low -- °F
Precip. -- in
5:23 AM 8:23 PM
Full, 100% visible
Pressure 30.10 in
Visibility 10.0 miles
Clouds Clear
Dew Point 47 °F
Humidity 39%
Rainfall 0.00 in
Snow Depth Not available.
UV 9 out of 12
Pollen 7.80 out of 12
Air Quality Not available.
Flu Activity Sporadic
METAR KARR 021952Z 12010KT 10SM CLR 23/08 A3010 RMK AO2 SLP193 T02280083

More Conditions Fewer Conditions

Pressure 30.10 in
Visibility 10.0 miles
Clouds Clear
Dew Point 47 °F
Humidity 39%
Rainfall 0.00 in
Snow Depth Not available.
UV 9 out of 12
Pollen 7.80 out of 12
Air Quality Not available.
Flu Activity Sporadic
METAR KARR 021952Z 12010KT 10SM CLR 23/08 A3010 RMK AO2 SLP193 T02280083

More Conditions Fewer Conditions

10-Day Weather Forecast

×

Almanac

Astronomy

Jun. 02, 2015 Rise Set
Actual Time
Civil Twilight
Nautical Twilight
Astronomical Twilight
Moon
Length of Visible Light
Length of Day
Tomorrow will be .
, % of the Moon is Illuminated

Today's Extremes

State Highs State Lows

Community

WunderPhotos

Upload Photos

1,826,021 photos uploaded!

WunderBlogs® & News

Nearby

Air Quality

  Air Quality AQ Index Pollutant
Not available.

Snow Depth

Station Depth Elevation

Earthquake Activity

City Distance Mag. Time & Date
Minimum magnitude displayed is 2.5.

Coastal Water Temperatures

Place Temperature

Stations

Nearby Weather Stations

Station Location Temp. Windchill Dew Point Humidity Wind Precip. Elev Updated Type